createdAt,value
2023-02-02T00:05:00.355Z,1955
2023-02-02T00:10:30.842Z,1978
2023-02-02T00:16:00.377Z,2021
2023-02-02T00:21:30.760Z,2000
2023-02-02T00:27:01.293Z,1979
2023-02-02T00:32:31.830Z,1963
2023-02-02T00:38:02.338Z,1960
2023-02-02T00:43:32.844Z,1989
2023-02-02T00:49:02.318Z,2009
2023-02-02T00:54:32.756Z,2011
2023-02-02T01:00:03.298Z,1988
2023-02-02T01:05:33.873Z,1984
2023-02-02T01:11:04.339Z,1968
2023-02-02T01:16:35.178Z,1965
2023-02-02T01:22:05.465Z,1982
2023-02-02T01:27:35.936Z,1976
2023-02-02T01:33:05.426Z,1983
2023-02-02T01:38:35.867Z,1986
2023-02-02T01:44:06.367Z,1974
2023-02-02T01:49:37.136Z,1973
2023-02-02T01:55:07.572Z,2010
2023-02-02T02:00:38.185Z,2011
2023-02-02T02:06:08.726Z,2034
2023-02-02T02:11:39.149Z,1995
2023-02-02T02:17:08.625Z,2014
2023-02-02T02:22:39.118Z,2012
2023-02-02T02:28:09.700Z,2006
2023-02-02T02:33:40.247Z,2007
2023-02-02T02:39:10.777Z,1999
2023-02-02T02:45:47.456Z,1988
2023-02-02T02:51:17.911Z,1978
2023-02-02T02:56:48.410Z,2023
2023-02-02T03:02:19.042Z,2041
2023-02-02T03:07:49.486Z,1982
2023-02-02T03:13:18.947Z,1988
2023-02-02T03:18:49.409Z,1995
2023-02-02T03:24:19.870Z,1993
2023-02-02T03:29:50.476Z,2005
2023-02-02T03:35:20.962Z,2013
2023-02-02T03:40:51.439Z,2011
2023-02-02T03:46:22.112Z,2025
2023-02-02T03:51:52.479Z,2008
2023-02-02T03:57:22.081Z,1979
2023-02-02T04:02:52.758Z,1997
2023-02-02T04:08:23.012Z,2039
2023-02-02T04:13:53.625Z,2015
2023-02-02T04:19:24.129Z,2008
2023-02-02T04:24:53.592Z,2006
2023-02-02T04:30:24.032Z,2061
2023-02-02T04:35:54.541Z,2033
2023-02-02T04:41:25.182Z,2047
2023-02-02T04:46:55.701Z,2036
2023-02-02T04:52:26.191Z,2017
2023-02-02T04:57:55.692Z,1992
2023-02-02T05:03:26.167Z,2000
2023-02-02T05:08:56.781Z,2048
2023-02-02T05:14:27.222Z,2078
2023-02-02T05:19:57.720Z,1907
2023-02-02T05:25:27.523Z,1861
2023-02-02T05:30:57.836Z,1820
2023-02-02T05:36:28.255Z,1781
2023-02-02T05:41:58.871Z,1767
2023-02-02T05:47:29.335Z,1746
2023-02-02T05:52:59.932Z,1734
2023-02-02T05:58:30.450Z,1709
2023-02-02T06:04:00.978Z,1700
2023-02-02T06:09:31.487Z,1697
2023-02-02T06:15:02.048Z,1690
2023-02-02T06:20:31.448Z,1675
2023-02-02T06:26:00.954Z,1659
2023-02-02T06:31:31.584Z,1649
2023-02-02T06:37:02.002Z,1635
2023-02-02T06:42:31.462Z,1626
2023-02-02T06:48:01.973Z,1611
2023-02-02T06:53:32.419Z,1612
2023-02-02T06:59:03.039Z,1602
2023-02-02T07:04:33.568Z,1589
2023-02-02T07:10:03.958Z,1578
2023-02-02T07:15:33.527Z,1571
2023-02-02T07:21:04.264Z,1563
2023-02-02T07:26:34.559Z,1546
2023-02-02T07:32:04.981Z,1537
2023-02-02T07:37:35.654Z,1529
2023-02-02T07:43:06.235Z,1517
2023-02-02T07:48:36.682Z,1509
2023-02-02T07:54:07.323Z,1508
2023-02-02T07:59:37.776Z,1506
2023-02-02T08:05:08.325Z,1489
2023-02-02T08:10:38.945Z,1481
2023-02-02T08:16:09.444Z,1477
2023-02-02T08:21:39.868Z,1479
2023-02-02T08:27:10.539Z,1458
2023-02-02T08:32:40.922Z,1454
2023-02-02T08:38:11.533Z,1436
2023-02-02T08:43:42.020Z,1432
2023-02-02T08:49:12.459Z,1432
2023-02-02T08:54:41.952Z,1417
2023-02-02T09:00:12.470Z,1409
2023-02-02T09:05:42.931Z,1412
2023-02-02T09:11:13.497Z,1403
2023-02-02T09:16:44.302Z,1393
2023-02-02T09:22:13.545Z,1378
2023-02-02T09:27:44.020Z,1374
2023-02-02T09:33:14.667Z,1373
2023-02-02T09:38:43.970Z,1364
2023-02-02T09:44:14.445Z,1353
2023-02-02T09:49:44.935Z,1349
2023-02-02T09:55:15.521Z,1346
2023-02-02T10:00:46.026Z,1330
2023-02-02T10:06:16.810Z,1320
2023-02-02T10:11:47.303Z,1318
2023-02-02T10:17:17.779Z,1305
2023-02-02T10:22:47.510Z,1301
2023-02-02T10:28:17.915Z,1294
2023-02-02T10:33:48.399Z,1291
2023-02-02T10:39:19.016Z,1278
2023-02-02T10:44:49.447Z,1272
2023-02-02T10:50:19.930Z,1270
2023-02-02T10:55:50.534Z,1264
2023-02-02T11:01:21.018Z,1255
2023-02-02T11:06:50.499Z,1247
2023-02-02T11:12:21.027Z,1238
2023-02-02T11:17:51.457Z,1234
2023-02-02T11:23:20.945Z,1229
2023-02-02T11:28:51.453Z,1226
2023-02-02T11:34:21.902Z,1213
2023-02-02T11:40:58.552Z,1209
2023-02-02T11:46:29.243Z,1202
2023-02-02T11:51:59.588Z,1197
2023-02-02T11:57:30.170Z,1192
2023-02-02T12:03:00.660Z,1190
2023-02-02T12:08:30.136Z,1181
2023-02-02T12:14:00.577Z,1174
2023-02-02T12:19:31.071Z,1170
2023-02-02T12:25:01.657Z,1163
2023-02-02T12:30:32.230Z,1156
2023-02-02T12:36:02.642Z,1143
2023-02-02T12:41:33.160Z,1143
2023-02-02T12:47:03.642Z,1133
2023-02-02T12:52:34.301Z,1130
2023-02-02T12:58:07.327Z,1125
2023-02-02T13:03:35.255Z,1122
2023-02-02T13:09:04.800Z,1116
2023-02-02T13:14:35.231Z,1107
2023-02-02T13:20:05.694Z,1103
2023-02-02T13:25:35.235Z,1101
2023-02-02T13:31:06.458Z,1096
2023-02-02T13:36:36.137Z,1097
2023-02-02T13:42:06.737Z,1089
2023-02-02T13:47:37.201Z,1086
2023-02-02T13:53:06.677Z,1078
2023-02-02T13:58:37.178Z,1076
2023-02-02T14:04:07.801Z,1072
2023-02-02T14:09:38.254Z,1071
2023-02-02T14:15:08.733Z,1066
2023-02-02T14:20:39.381Z,1063
2023-02-02T14:26:09.947Z,1057
2023-02-02T14:31:40.559Z,1063
2023-02-02T14:37:10.950Z,1054
2023-02-02T14:42:41.432Z,1049
2023-02-02T14:48:12.063Z,1047
2023-02-02T14:53:41.502Z,1036
2023-02-02T14:59:11.951Z,1028
2023-02-02T15:04:42.510Z,1028
2023-02-02T15:10:11.987Z,1027
2023-02-02T15:15:42.559Z,1022
2023-02-02T15:21:13.093Z,1019
2023-02-02T15:26:43.586Z,1014
2023-02-02T15:32:14.005Z,1002
2023-02-02T15:37:44.618Z,1002
2023-02-02T15:43:15.195Z,1001
2023-02-02T15:49:50.760Z,1000
2023-02-02T15:55:21.327Z,991
2023-02-02T16:00:51.814Z,986
2023-02-02T16:06:21.199Z,984
2023-02-02T16:11:51.703Z,986
2023-02-02T16:17:22.259Z,975
2023-02-02T16:22:52.749Z,973
2023-02-02T16:28:23.260Z,967
2023-02-02T16:33:52.725Z,963
2023-02-02T16:39:23.197Z,963
2023-02-02T16:44:53.686Z,960
2023-02-02T16:50:24.243Z,963
2023-02-02T16:55:54.701Z,950
2023-02-02T17:01:25.404Z,957
2023-02-02T17:06:54.789Z,952
2023-02-02T17:12:34.573Z,952
2023-02-02T17:17:55.871Z,946
2023-02-02T17:23:26.330Z,946
2023-02-02T17:28:56.851Z,947
2023-02-02T17:34:26.318Z,944
2023-02-02T17:39:56.751Z,945
2023-02-02T17:45:27.641Z,940
2023-02-02T17:50:57.888Z,932
2023-02-02T17:56:28.405Z,934
2023-02-02T18:01:58.998Z,925
2023-02-02T18:07:29.495Z,925
2023-02-02T18:12:58.974Z,924
2023-02-02T18:18:29.448Z,926
2023-02-02T18:23:59.939Z,929
2023-02-02T18:29:29.401Z,922
2023-02-02T18:34:59.856Z,926
2023-02-02T18:40:30.361Z,926
2023-02-02T18:45:59.879Z,927
2023-02-02T18:51:30.272Z,936
2023-02-02T18:57:00.883Z,944
2023-02-02T19:02:31.331Z,965
2023-02-02T19:08:01.819Z,996
2023-02-02T19:13:31.484Z,1013
2023-02-02T19:19:01.920Z,1002
2023-02-02T19:24:32.396Z,1019
2023-02-02T19:31:08.134Z,1029
2023-02-02T19:36:38.439Z,1040
2023-02-02T19:42:07.928Z,1052
2023-02-02T19:47:38.428Z,1060
2023-02-02T19:53:08.890Z,1069
2023-02-02T19:58:39.468Z,1077
2023-02-02T20:04:09.958Z,1091
2023-02-02T20:09:40.412Z,1101
2023-02-02T20:15:11.007Z,1116
2023-02-02T20:20:41.503Z,1123
2023-02-02T20:26:12.155Z,1134
2023-02-02T20:31:41.616Z,1155
2023-02-02T20:37:12.082Z,1177
2023-02-02T20:42:42.633Z,1298
2023-02-02T20:48:13.087Z,1334
2023-02-02T20:53:43.588Z,1379
2023-02-02T20:59:14.174Z,1423
2023-02-02T21:04:44.643Z,1479
2023-02-02T21:10:15.420Z,1478
2023-02-02T21:15:44.917Z,1473
2023-02-02T21:21:15.591Z,1464
2023-02-02T21:26:47.771Z,1594
2023-02-02T21:32:16.589Z,1598
2023-02-02T21:37:47.082Z,1560
2023-02-02T21:43:16.592Z,1542
2023-02-02T21:48:47.028Z,1531
2023-02-02T21:54:17.530Z,1530
2023-02-02T21:59:48.236Z,1519
2023-02-02T22:05:18.733Z,1622
2023-02-02T22:11:55.388Z,1549
2023-02-02T22:17:25.907Z,1555
2023-02-02T22:22:56.341Z,1565
2023-02-02T22:28:27.095Z,1548
2023-02-02T22:33:57.531Z,1565
2023-02-02T22:39:27.979Z,1583
2023-02-02T22:44:57.538Z,1584
2023-02-02T22:50:28.383Z,1575
2023-02-02T22:55:57.487Z,1556
2023-02-02T23:01:27.976Z,1575
2023-02-02T23:06:58.472Z,1663
2023-02-02T23:12:29.021Z,1660
2023-02-02T23:17:59.629Z,1646
2023-02-02T23:23:30.074Z,1657
2023-02-02T23:29:00.635Z,1706
2023-02-02T23:34:31.096Z,1719
2023-02-02T23:40:01.612Z,1738
2023-02-02T23:45:32.196Z,1702
2023-02-02T23:51:02.662Z,1701
2023-02-02T23:56:33.318Z,1737
